sensor_id;sensor_type;location;lat;lon;timestamp;pressure;altitude;pressure_sealevel;temperature;humidity
40596;BME280;26304;48.794;9.820;2022-08-01T00:00:12;96417.34;;;22.52;50.39
40596;BME280;26304;48.794;9.820;2022-08-01T00:05:54;96425.00;;;22.43;51.07
40596;BME280;26304;48.794;9.820;2022-08-01T00:11:38;96420.53;;;22.36;50.78
40596;BME280;26304;48.794;9.820;2022-08-01T00:17:20;96429.66;;;22.28;51.37
40596;BME280;26304;48.794;9.820;2022-08-01T00:23:03;96425.88;;;22.25;51.08
40596;BME280;26304;48.794;9.820;2022-08-01T00:28:47;96424.81;;;22.19;51.08
40596;BME280;26304;48.794;9.820;2022-08-01T00:34:30;96424.06;;;22.19;51.12
40596;BME280;26304;48.794;9.820;2022-08-01T00:40:12;96425.97;;;22.14;51.04
40596;BME280;26304;48.794;9.820;2022-08-01T00:45:56;96420.69;;;22.14;51.11
40596;BME280;26304;48.794;9.820;2022-08-01T00:51:38;96416.97;;;22.08;51.39
40596;BME280;26304;48.794;9.820;2022-08-01T00:57:21;96413.94;;;22.06;51.35
40596;BME280;26304;48.794;9.820;2022-08-01T01:03:05;96416.69;;;21.99;51.36
40596;BME280;26304;48.794;9.820;2022-08-01T01:08:55;96425.78;;;21.94;51.75
40596;BME280;26304;48.794;9.820;2022-08-01T01:14:44;96429.97;;;21.92;51.99
40596;BME280;26304;48.794;9.820;2022-08-01T01:20:33;96430.72;;;21.89;52.20
40596;BME280;26304;48.794;9.820;2022-08-01T01:26:36;96427.72;;;21.87;52.03
40596;BME280;26304;48.794;9.820;2022-08-01T01:32:26;96424.38;;;21.83;52.45
40596;BME280;26304;48.794;9.820;2022-08-01T01:38:17;96429.25;;;21.84;52.25
40596;BME280;26304;48.794;9.820;2022-08-01T01:44:01;96426.72;;;21.73;52.44
40596;BME280;26304;48.794;9.820;2022-08-01T01:49:47;96438.78;;;21.74;52.40
40596;BME280;26304;48.794;9.820;2022-08-01T01:55:32;96440.34;;;21.68;52.67
40596;BME280;26304;48.794;9.820;2022-08-01T02:01:17;96435.47;;;21.63;53.04
40596;BME280;26304;48.794;9.820;2022-08-01T02:07:02;96438.84;;;21.67;53.09
40596;BME280;26304;48.794;9.820;2022-08-01T02:12:47;96443.47;;;21.56;53.37
40596;BME280;26304;48.794;9.820;2022-08-01T02:18:31;96447.63;;;21.53;53.59
40596;BME280;26304;48.794;9.820;2022-08-01T02:24:21;96447.66;;;21.50;53.92
40596;BME280;26304;48.794;9.820;2022-08-01T02:30:08;96448.38;;;21.47;54.13
40596;BME280;26304;48.794;9.820;2022-08-01T02:35:56;96449.53;;;21.42;54.09
40596;BME280;26304;48.794;9.820;2022-08-01T02:41:43;96443.19;;;21.32;54.83
40596;BME280;26304;48.794;9.820;2022-08-01T02:47:27;96440.91;;;21.31;54.61
40596;BME280;26304;48.794;9.820;2022-08-01T02:53:12;96445.13;;;21.21;54.86
40596;BME280;26304;48.794;9.820;2022-08-01T02:58:56;96445.50;;;21.23;54.84
40596;BME280;26304;48.794;9.820;2022-08-01T03:04:40;96450.81;;;21.16;55.13
40596;BME280;26304;48.794;9.820;2022-08-01T03:10:24;96452.34;;;21.13;55.63
40596;BME280;26304;48.794;9.820;2022-08-01T03:16:11;96455.78;;;21.03;55.64
40596;BME280;26304;48.794;9.820;2022-08-01T03:21:55;96459.19;;;21.03;55.31
40596;BME280;26304;48.794;9.820;2022-08-01T03:27:42;96451.66;;;20.98;56.16
40596;BME280;26304;48.794;9.820;2022-08-01T03:33:26;96466.41;;;20.92;56.39
40596;BME280;26304;48.794;9.820;2022-08-01T03:39:11;96461.88;;;20.89;56.50
40596;BME280;26304;48.794;9.820;2022-08-01T03:44:58;96465.28;;;20.86;56.71
40596;BME280;26304;48.794;9.820;2022-08-01T03:50:46;96461.16;;;20.78;57.06
40596;BME280;26304;48.794;9.820;2022-08-01T03:56:30;96466.81;;;20.80;57.07
40596;BME280;26304;48.794;9.820;2022-08-01T04:02:14;96472.88;;;20.70;57.52
40596;BME280;26304;48.794;9.820;2022-08-01T04:07:58;96464.19;;;20.62;57.71
40596;BME280;26304;48.794;9.820;2022-08-01T04:13:43;96474.75;;;20.65;57.38
40596;BME280;26304;48.794;9.820;2022-08-01T04:19:25;96476.25;;;20.48;57.81
40596;BME280;26304;48.794;9.820;2022-08-01T04:25:13;96475.88;;;20.61;57.70
40596;BME280;26304;48.794;9.820;2022-08-01T04:30:57;96487.22;;;20.54;57.82
40596;BME280;26304;48.794;9.820;2022-08-01T04:36:40;96487.97;;;20.51;58.12
40596;BME280;26304;48.794;9.820;2022-08-01T04:42:25;96494.00;;;20.51;58.21
40596;BME280;26304;48.794;9.820;2022-08-01T04:48:09;96504.19;;;20.46;58.64
40596;BME280;26304;48.794;9.820;2022-08-01T04:53:53;96495.53;;;20.49;58.24
40596;BME280;26304;48.794;9.820;2022-08-01T04:59:38;96502.28;;;20.50;58.59
40596;BME280;26304;48.794;9.820;2022-08-01T05:05:24;96504.94;;;20.50;58.94
40596;BME280;26304;48.794;9.820;2022-08-01T05:11:07;96503.06;;;20.47;59.32
40596;BME280;26304;48.794;9.820;2022-08-01T05:16:51;96504.19;;;20.46;59.75
40596;BME280;26304;48.794;9.820;2022-08-01T05:22:33;96505.69;;;20.47;59.79
40596;BME280;26304;48.794;9.820;2022-08-01T05:28:16;96508.72;;;20.53;60.14
40596;BME280;26304;48.794;9.820;2022-08-01T05:34:00;96494.00;;;20.51;60.70
40596;BME280;26304;48.794;9.820;2022-08-01T05:39:42;96495.50;;;20.63;60.91
40596;BME280;26304;48.794;9.820;2022-08-01T05:45:25;96509.84;;;20.62;61.20
40596;BME280;26304;48.794;9.820;2022-08-01T05:51:08;96505.31;;;20.81;61.37
40596;BME280;26304;48.794;9.820;2022-08-01T05:56:51;96503.78;;;20.87;61.28
40596;BME280;26304;48.794;9.820;2022-08-01T06:02:33;96503.78;;;20.83;61.33
40596;BME280;26304;48.794;9.820;2022-08-01T06:08:17;96501.16;;;20.80;61.44
40596;BME280;26304;48.794;9.820;2022-08-01T06:14:00;96507.53;;;20.90;61.71
40596;BME280;26304;48.794;9.820;2022-08-01T06:19:42;96510.56;;;20.95;61.96
40596;BME280;26304;48.794;9.820;2022-08-01T06:25:26;96516.97;;;21.01;61.81
40596;BME280;26304;48.794;9.820;2022-08-01T06:31:09;96517.66;;;21.09;61.82
40596;BME280;26304;48.794;9.820;2022-08-01T06:36:53;96518.00;;;21.26;60.90
40596;BME280;26304;48.794;9.820;2022-08-01T06:42:38;96522.84;;;21.49;60.74
40596;BME280;26304;48.794;9.820;2022-08-01T06:48:20;96529.97;;;21.59;60.14
40596;BME280;26304;48.794;9.820;2022-08-01T06:54:04;96528.81;;;21.67;60.21
40596;BME280;26304;48.794;9.820;2022-08-01T06:59:48;96526.50;;;21.76;59.67
40596;BME280;26304;48.794;9.820;2022-08-01T07:05:30;96525.72;;;21.80;59.80
40596;BME280;26304;48.794;9.820;2022-08-01T07:11:13;96515.84;;;21.84;59.28
40596;BME280;26304;48.794;9.820;2022-08-01T07:16:57;96518.47;;;21.91;59.02
40596;BME280;26304;48.794;9.820;2022-08-01T07:22:39;96519.16;;;21.95;58.75
40596;BME280;26304;48.794;9.820;2022-08-01T07:28:21;96517.63;;;22.01;58.72
40596;BME280;26304;48.794;9.820;2022-08-01T07:34:05;96512.69;;;22.03;58.50
40596;BME280;26304;48.794;9.820;2022-08-01T07:39:48;96511.13;;;22.09;58.61
40596;BME280;26304;48.794;9.820;2022-08-01T07:45:30;96514.13;;;22.15;58.42
40596;BME280;26304;48.794;9.820;2022-08-01T07:51:14;96518.97;;;22.24;58.36
40596;BME280;26304;48.794;9.820;2022-08-01T07:56:56;96509.84;;;22.28;58.15
40596;BME280;26304;48.794;9.820;2022-08-01T08:02:39;96511.31;;;22.37;58.08
40596;BME280;26304;48.794;9.820;2022-08-01T08:08:23;96507.97;;;22.33;58.09
40596;BME280;26304;48.794;9.820;2022-08-01T08:14:05;96509.84;;;22.32;58.13
40596;BME280;26304;48.794;9.820;2022-08-01T08:19:48;96513.63;;;22.35;57.74
40596;BME280;26304;48.794;9.820;2022-08-01T08:25:31;96516.63;;;22.37;57.76
40596;BME280;26304;48.794;9.820;2022-08-01T08:31:15;96510.53;;;22.40;57.89
40596;BME280;26304;48.794;9.820;2022-08-01T08:36:58;96510.53;;;22.43;57.27
40596;BME280;26304;48.794;9.820;2022-08-01T08:42:42;96512.38;;;22.46;57.68
40596;BME280;26304;48.794;9.820;2022-08-01T08:48:25;96510.06;;;22.52;58.37
40596;BME280;26304;48.794;9.820;2022-08-01T08:54:10;96515.97;;;22.71;57.89
40596;BME280;26304;48.794;9.820;2022-08-01T08:59:55;96506.84;;;22.72;58.06
40596;BME280;26304;48.794;9.820;2022-08-01T09:05:39;96506.44;;;22.73;57.97
40596;BME280;26304;48.794;9.820;2022-08-01T09:11:22;96508.75;;;22.71;58.04
40596;BME280;26304;48.794;9.820;2022-08-01T09:17:07;96506.81;;;22.75;57.18
40596;BME280;26304;48.794;9.820;2022-08-01T09:22:51;96511.75;;;22.73;57.46
40596;BME280;26304;48.794;9.820;2022-08-01T09:28:34;96517.78;;;22.77;57.20
40596;BME280;26304;48.794;9.820;2022-08-01T09:34:25;96508.66;;;22.78;56.91
40596;BME280;26304;48.794;9.820;2022-08-01T09:40:09;96510.19;;;22.79;56.97
40596;BME280;26304;48.794;9.820;2022-08-01T09:45:51;96513.19;;;22.81;56.76
40596;BME280;26304;48.794;9.820;2022-08-01T09:51:37;96510.91;;;22.83;56.66
40596;BME280;26304;48.794;9.820;2022-08-01T09:57:20;96519.22;;;22.85;56.82
40596;BME280;26304;48.794;9.820;2022-08-01T10:03:19;96511.59;;;22.88;56.70
40596;BME280;26304;48.794;9.820;2022-08-01T10:09:03;96519.13;;;22.93;56.57
40596;BME280;26304;48.794;9.820;2022-08-01T10:14:48;96514.19;;;22.95;56.51
40596;BME280;26304;48.794;9.820;2022-08-01T10:20:32;96509.25;;;22.97;56.40
40596;BME280;26304;48.794;9.820;2022-08-01T10:26:16;96497.84;;;23.00;56.49
40596;BME280;26304;48.794;9.820;2022-08-01T10:31:59;96506.16;;;23.02;56.20
40596;BME280;26304;48.794;9.820;2022-08-01T10:37:42;96500.06;;;23.05;56.21
40596;BME280;26304;48.794;9.820;2022-08-01T10:43:26;96491.69;;;23.07;56.13
40596;BME280;26304;48.794;9.820;2022-08-01T10:49:11;96493.59;;;23.10;56.14
40596;BME280;26304;48.794;9.820;2022-08-01T10:55:02;96493.53;;;23.13;56.05
40596;BME280;26304;48.794;9.820;2022-08-01T11:00:46;96499.22;;;23.15;55.73
40596;BME280;26304;48.794;9.820;2022-08-01T11:06:40;96490.06;;;23.20;55.92
40596;BME280;26304;48.794;9.820;2022-08-01T11:12:38;96480.94;;;23.21;55.83
40596;BME280;26304;48.794;9.820;2022-08-01T11:18:31;96488.50;;;23.23;55.57
40596;BME280;26304;48.794;9.820;2022-08-01T11:24:14;96476.41;;;23.21;55.67
40596;BME280;26304;48.794;9.820;2022-08-01T11:30:21;96473.97;;;23.34;56.41
40596;BME280;26304;48.794;9.820;2022-08-01T11:36:17;96471.47;;;23.51;57.12
40596;BME280;26304;48.794;9.820;2022-08-01T11:42:19;96467.28;;;23.53;56.77
40596;BME280;26304;48.794;9.820;2022-08-01T11:48:17;96459.22;;;23.61;56.56
40596;BME280;26304;48.794;9.820;2022-08-01T11:54:01;96456.09;;;23.66;56.33
40596;BME280;26304;48.794;9.820;2022-08-01T11:59:46;96449.59;;;23.70;56.54
40596;BME280;26304;48.794;9.820;2022-08-01T12:05:31;96443.88;;;23.72;56.20
40596;BME280;26304;48.794;9.820;2022-08-01T12:11:16;96447.59;;;23.78;55.95
40596;BME280;26304;48.794;9.820;2022-08-01T12:16:58;96449.44;;;23.81;56.27
40596;BME280;26304;48.794;9.820;2022-08-01T12:22:41;96440.16;;;23.93;56.19
40596;BME280;26304;48.794;9.820;2022-08-01T12:28:26;96438.44;;;24.06;55.76
40596;BME280;26304;48.794;9.820;2022-08-01T12:34:27;96438.25;;;24.17;55.74
40596;BME280;26304;48.794;9.820;2022-08-01T12:40:12;96438.47;;;24.26;55.13
40596;BME280;26304;48.794;9.820;2022-08-01T12:45:59;96436.03;;;24.36;54.87
40596;BME280;26304;48.794;9.820;2022-08-01T12:51:43;96440.16;;;24.40;55.00
40596;BME280;26304;48.794;9.820;2022-08-01T12:57:25;96439.97;;;24.51;54.97
40596;BME280;26304;48.794;9.820;2022-08-01T13:03:12;96438.13;;;24.48;55.08
40596;BME280;26304;48.794;9.820;2022-08-01T13:08:55;96420.00;;;24.43;54.96
40596;BME280;26304;48.794;9.820;2022-08-01T13:14:46;96417.09;;;24.57;54.30
40596;BME280;26304;48.794;9.820;2022-08-01T13:20:32;96409.59;;;24.72;53.88
40596;BME280;26304;48.794;9.820;2022-08-01T13:26:17;96420.03;;;24.83;53.93
40596;BME280;26304;48.794;9.820;2022-08-01T13:32:00;96411.75;;;24.77;54.45
40596;BME280;26304;48.794;9.820;2022-08-01T13:37:44;96404.41;;;24.65;54.82
40596;BME280;26304;48.794;9.820;2022-08-01T13:43:26;96413.06;;;24.89;54.94
40596;BME280;26304;48.794;9.820;2022-08-01T13:49:10;96398.28;;;25.05;54.75
40596;BME280;26304;48.794;9.820;2022-08-01T13:54:54;96408.78;;;25.12;54.51
40596;BME280;26304;48.794;9.820;2022-08-01T14:00:36;96393.63;;;24.72;55.33
40596;BME280;26304;48.794;9.820;2022-08-01T14:06:20;96398.72;;;24.43;56.66
40596;BME280;26304;48.794;9.820;2022-08-01T14:12:05;96389.28;;;24.62;56.52
40596;BME280;26304;48.794;9.820;2022-08-01T14:17:47;96382.88;;;24.59;55.96
40596;BME280;26304;48.794;9.820;2022-08-01T14:23:30;96386.75;;;24.75;56.10
40596;BME280;26304;48.794;9.820;2022-08-01T14:29:14;96389.66;;;24.80;56.36
40596;BME280;26304;48.794;9.820;2022-08-01T14:34:56;96383.41;;;24.91;56.12
40596;BME280;26304;48.794;9.820;2022-08-01T14:40:39;96391.38;;;24.91;56.43
40596;BME280;26304;48.794;9.820;2022-08-01T14:46:23;96397.94;;;24.86;56.42
40596;BME280;26304;48.794;9.820;2022-08-01T14:52:05;96396.88;;;25.00;56.03
40596;BME280;26304;48.794;9.820;2022-08-01T14:57:48;96389.28;;;24.98;56.09
40596;BME280;26304;48.794;9.820;2022-08-01T15:03:31;96396.13;;;24.99;56.63
40596;BME280;26304;48.794;9.820;2022-08-01T15:09:14;96385.34;;;25.07;56.10
40596;BME280;26304;48.794;9.820;2022-08-01T15:14:56;96385.25;;;25.10;56.22
40596;BME280;26304;48.794;9.820;2022-08-01T15:20:40;96388.03;;;25.23;55.26
40596;BME280;26304;48.794;9.820;2022-08-01T15:26:23;96391.72;;;25.29;54.99
40596;BME280;26304;48.794;9.820;2022-08-01T15:32:06;96391.91;;;25.38;55.42
40596;BME280;26304;48.794;9.820;2022-08-01T15:37:50;96403.56;;;25.61;54.46
40596;BME280;26304;48.794;9.820;2022-08-01T15:43:33;96407.28;;;25.80;53.74
40596;BME280;26304;48.794;9.820;2022-08-01T15:49:16;96398.69;;;25.89;54.04
40596;BME280;26304;48.794;9.820;2022-08-01T15:54:59;96403.19;;;25.92;54.09
40596;BME280;26304;48.794;9.820;2022-08-01T16:00:42;96398.94;;;26.11;53.47
40596;BME280;26304;48.794;9.820;2022-08-01T16:06:24;96392.13;;;26.10;54.02
40596;BME280;26304;48.794;9.820;2022-08-01T16:12:09;96387.31;;;26.05;53.84
40596;BME280;26304;48.794;9.820;2022-08-01T16:17:51;96385.22;;;26.13;53.91
40596;BME280;26304;48.794;9.820;2022-08-01T16:23:33;96397.28;;;26.17;54.16
40596;BME280;26304;48.794;9.820;2022-08-01T16:29:17;96392.31;;;26.32;53.59
40596;BME280;26304;48.794;9.820;2022-08-01T16:35:00;96396.47;;;26.33;53.90
40596;BME280;26304;48.794;9.820;2022-08-01T16:40:42;96387.50;;;26.27;53.85
40596;BME280;26304;48.794;9.820;2022-08-01T16:46:28;96397.78;;;25.96;54.61
40596;BME280;26304;48.794;9.820;2022-08-01T16:52:11;96411.88;;;25.63;51.88
40596;BME280;26304;48.794;9.820;2022-08-01T16:57:53;96429.00;;;25.62;49.81
40596;BME280;26304;48.794;9.820;2022-08-01T17:03:38;96424.00;;;25.48;49.12
40596;BME280;26304;48.794;9.820;2022-08-01T17:09:21;96432.25;;;25.37;48.49
40596;BME280;26304;48.794;9.820;2022-08-01T17:15:04;96437.38;;;25.28;47.20
40596;BME280;26304;48.794;9.820;2022-08-01T17:20:48;96418.44;;;25.22;47.72
40596;BME280;26304;48.794;9.820;2022-08-01T17:26:31;96435.81;;;25.10;48.09
40596;BME280;26304;48.794;9.820;2022-08-01T17:32:13;96434.38;;;25.06;48.11
40596;BME280;26304;48.794;9.820;2022-08-01T17:37:57;96429.13;;;25.02;48.19
40596;BME280;26304;48.794;9.820;2022-08-01T17:43:40;96436.34;;;25.01;48.28
40596;BME280;26304;48.794;9.820;2022-08-01T17:49:22;96436.50;;;24.94;48.47
40596;BME280;26304;48.794;9.820;2022-08-01T17:55:07;96454.09;;;24.88;48.80
40596;BME280;26304;48.794;9.820;2022-08-01T18:00:50;96454.84;;;24.89;48.87
40596;BME280;26304;48.794;9.820;2022-08-01T18:06:32;96455.19;;;24.71;48.98
40596;BME280;26304;48.794;9.820;2022-08-01T18:12:18;96457.84;;;24.71;48.81
40596;BME280;26304;48.794;9.820;2022-08-01T18:18:00;96452.13;;;24.72;48.35
40596;BME280;26304;48.794;9.820;2022-08-01T18:23:43;96451.91;;;24.63;48.55
40596;BME280;26304;48.794;9.820;2022-08-01T18:29:27;96458.41;;;24.62;48.21
40596;BME280;26304;48.794;9.820;2022-08-01T18:35:10;96461.41;;;24.64;48.28
40596;BME280;26304;48.794;9.820;2022-08-01T18:40:52;96459.47;;;24.64;48.66
40596;BME280;26304;48.794;9.820;2022-08-01T18:46:37;96465.28;;;24.59;49.29
40596;BME280;26304;48.794;9.820;2022-08-01T18:52:20;96455.47;;;24.56;48.98
40596;BME280;26304;48.794;9.820;2022-08-01T18:58:03;96461.97;;;24.52;48.91
40596;BME280;26304;48.794;9.820;2022-08-01T19:03:47;96465.44;;;24.48;48.58
40596;BME280;26304;48.794;9.820;2022-08-01T19:09:29;96473.00;;;24.50;48.93
40596;BME280;26304;48.794;9.820;2022-08-01T19:15:12;96476.25;;;24.38;48.89
40596;BME280;26304;48.794;9.820;2022-08-01T19:20:55;96468.88;;;24.25;49.70
40596;BME280;26304;48.794;9.820;2022-08-01T19:26:38;96480.00;;;24.17;49.87
40596;BME280;26304;48.794;9.820;2022-08-01T19:32:22;96475.88;;;24.16;50.58
40596;BME280;26304;48.794;9.820;2022-08-01T19:38:07;96473.63;;;24.14;50.42
40596;BME280;26304;48.794;9.820;2022-08-01T19:43:50;96478.97;;;24.10;50.45
40596;BME280;26304;48.794;9.820;2022-08-01T19:49:32;96485.09;;;24.07;52.49
40596;BME280;26304;48.794;9.820;2022-08-01T19:55:17;96494.47;;;23.88;52.66
40596;BME280;26304;48.794;9.820;2022-08-01T20:01:00;96503.59;;;23.87;52.30
40596;BME280;26304;48.794;9.820;2022-08-01T20:06:42;96521.47;;;23.83;51.96
40596;BME280;26304;48.794;9.820;2022-08-01T20:12:27;96534.75;;;23.83;51.63
40596;BME280;26304;48.794;9.820;2022-08-01T20:18:09;96536.63;;;23.83;51.20
40596;BME280;26304;48.794;9.820;2022-08-01T20:23:52;96547.66;;;23.81;51.52
40596;BME280;26304;48.794;9.820;2022-08-01T20:29:39;96568.19;;;23.77;51.83
40596;BME280;26304;48.794;9.820;2022-08-01T20:35:23;96583.38;;;23.76;52.73
40596;BME280;26304;48.794;9.820;2022-08-01T20:41:06;96592.88;;;23.43;54.58
40596;BME280;26304;48.794;9.820;2022-08-01T20:46:51;96612.03;;;23.24;57.81
40596;BME280;26304;48.794;9.820;2022-08-01T20:52:34;96623.97;;;23.01;61.00
40596;BME280;26304;48.794;9.820;2022-08-01T20:58:23;96625.50;;;22.53;64.09
40596;BME280;26304;48.794;9.820;2022-08-01T21:04:17;96620.91;;;22.61;64.48
40596;BME280;26304;48.794;9.820;2022-08-01T21:10:05;96633.66;;;22.73;64.57
40596;BME280;26304;48.794;9.820;2022-08-01T21:15:51;96631.00;;;22.73;64.39
40596;BME280;26304;48.794;9.820;2022-08-01T21:21:38;96633.28;;;22.15;68.18
40596;BME280;26304;48.794;9.820;2022-08-01T21:27:23;96639.19;;;22.41;67.18
40596;BME280;26304;48.794;9.820;2022-08-01T21:33:09;96629.41;;;22.34;66.82
40596;BME280;26304;48.794;9.820;2022-08-01T21:38:55;96611.31;;;22.14;66.29
40596;BME280;26304;48.794;9.820;2022-08-01T21:44:39;96606.72;;;22.33;64.36
40596;BME280;26304;48.794;9.820;2022-08-01T21:50:23;96620.31;;;22.35;63.52
40596;BME280;26304;48.794;9.820;2022-08-01T21:56:11;96624.13;;;22.27;63.28
40596;BME280;26304;48.794;9.820;2022-08-01T22:02:01;96622.25;;;22.31;63.24
40596;BME280;26304;48.794;9.820;2022-08-01T22:07:45;96629.41;;;22.27;62.68
40596;BME280;26304;48.794;9.820;2022-08-01T22:13:30;96621.88;;;22.22;62.85
40596;BME280;26304;48.794;9.820;2022-08-01T22:19:13;96620.75;;;22.19;63.42
40596;BME280;26304;48.794;9.820;2022-08-01T22:24:56;96631.00;;;22.13;63.96
40596;BME280;26304;48.794;9.820;2022-08-01T22:30:41;96626.94;;;21.94;64.47
40596;BME280;26304;48.794;9.820;2022-08-01T22:36:24;96618.97;;;22.05;64.68
40596;BME280;26304;48.794;9.820;2022-08-01T22:42:08;96611.09;;;21.91;65.73
40596;BME280;26304;48.794;9.820;2022-08-01T22:48:00;96609.16;;;21.95;65.66
40596;BME280;26304;48.794;9.820;2022-08-01T22:53:54;96603.94;;;21.88;66.30
40596;BME280;26304;48.794;9.820;2022-08-01T22:59:45;96606.19;;;21.86;66.55
40596;BME280;26304;48.794;9.820;2022-08-01T23:05:34;96603.28;;;21.62;67.47
40596;BME280;26304;48.794;9.820;2022-08-01T23:11:18;96603.66;;;21.64;66.93
40596;BME280;26304;48.794;9.820;2022-08-01T23:17:01;96602.16;;;21.56;67.41
40596;BME280;26304;48.794;9.820;2022-08-01T23:22:46;96597.66;;;21.53;67.39
40596;BME280;26304;48.794;9.820;2022-08-01T23:28:30;96587.84;;;21.50;67.39
40596;BME280;26304;48.794;9.820;2022-08-01T23:34:13;96582.53;;;21.42;67.48
40596;BME280;26304;48.794;9.820;2022-08-01T23:39:57;96584.81;;;21.40;67.76
40596;BME280;26304;48.794;9.820;2022-08-01T23:45:39;96589.75;;;21.31;67.89
40596;BME280;26304;48.794;9.820;2022-08-01T23:51:22;96579.97;;;21.17;68.35
40596;BME280;26304;48.794;9.820;2022-08-01T23:57:06;96578.47;;;21.09;68.44
